Time;durP1;ratioP1;P1;durP2;ratioP2;P2;SDS_P1;SDS_P2;PMS_P1;PMS_P2;Temp;Humidity;BMP_temperature;BMP_pressure;BME280_temperature;BME280_humidity;BME280_pressure;Samples;Min_cycle;Max_cycle;Signal;HPM_P1;HPM_P2
2021/04/30 00:00:36;;;;;;;9.82;3.78;;;;;;;14.12;55.92;97847.38;5025010;28;20057;-60
2021/04/30 00:03:01;;;;;;;10.27;4.25;;;;;;;14.04;55.85;97841.75;5024098;28;20148;-60
2021/04/30 00:05:29;;;;;;;15.32;5.45;;;;;;;14.12;55.29;97852.53;5027743;28;20041;-60
2021/04/30 00:07:55;;;;;;;12.63;4.65;;;;;;;14.15;55.52;97860.97;5020935;28;20026;-60
2021/04/30 00:10:21;;;;;;;17.30;5.75;;;;;;;14.04;55.60;97862.38;5025011;28;20033;-60
2021/04/30 00:12:46;;;;;;;12.60;4.20;;;;;;;13.97;55.67;97869.53;5026866;28;20061;-60
2021/04/30 00:15:12;;;;;;;8.50;3.78;;;;;;;13.99;55.56;97878.03;5025180;28;20080;-60
2021/04/30 00:17:38;;;;;;;12.60;5.85;;;;;;;14.05;55.02;97876.91;5025206;28;20209;-60
2021/04/30 00:20:04;;;;;;;10.52;4.93;;;;;;;14.10;54.80;97885.28;5021676;28;20034;-60
2021/04/30 00:22:29;;;;;;;15.75;5.70;;;;;;;14.10;54.81;97874.97;5022867;28;20060;-60
2021/04/30 00:24:55;;;;;;;11.88;5.03;;;;;;;14.12;55.02;97886.06;5023601;28;20042;-60
2021/04/30 00:27:20;;;;;;;16.45;5.88;;;;;;;14.12;55.13;97883.47;5024797;28;20073;-60
2021/04/30 00:29:46;;;;;;;10.45;4.38;;;;;;;14.13;54.33;97885.16;5025125;28;20320;-60
2021/04/30 00:32:12;;;;;;;10.95;4.32;;;;;;;14.26;54.34;97901.72;5023092;28;20295;-60
2021/04/30 00:34:40;;;;;;;22.35;7.07;;;;;;;14.37;53.53;97899.53;5023208;28;20057;-60
2021/04/30 00:37:05;;;;;;;11.90;4.93;;;;;;;14.37;53.60;97896.13;5023497;28;20046;-60
2021/04/30 00:39:30;;;;;;;13.85;4.85;;;;;;;14.42;53.70;97889.84;5022661;28;20163;-60
2021/04/30 00:41:56;;;;;;;17.30;5.82;;;;;;;14.45;53.46;97897.44;5020748;28;20330;-60
2021/04/30 00:44:22;;;;;;;24.05;6.95;;;;;;;14.46;53.30;97893.97;5022907;28;20319;-60
2021/04/30 00:46:48;;;;;;;11.35;4.35;;;;;;;14.54;53.50;97896.19;5022478;28;20287;-60
2021/04/30 00:49:13;;;;;;;14.02;4.97;;;;;;;14.51;53.11;97893.75;5025452;28;20025;-60
2021/04/30 00:51:39;;;;;;;10.70;4.47;;;;;;;14.51;53.55;97902.28;5022858;28;20034;-60
2021/04/30 00:54:05;;;;;;;14.00;4.82;;;;;;;14.47;52.85;97905.13;5023796;28;20061;-60
2021/04/30 00:56:32;;;;;;;11.00;4.25;;;;;;;14.51;53.62;97904.88;5021939;28;20061;-60
2021/04/30 00:59:00;;;;;;;13.07;5.18;;;;;;;14.46;53.17;97896.53;5021653;28;20026;-60
2021/04/30 01:01:25;;;;;;;24.08;7.75;;;;;;;14.48;53.68;97899.03;5029049;28;20261;-61
2021/04/30 01:03:52;;;;;;;14.93;6.35;;;;;;;14.44;54.05;97908.66;5027476;28;20049;-61
2021/04/30 01:06:18;;;;;;;17.30;6.47;;;;;;;14.45;53.49;97899.19;5024124;28;20041;-61
2021/04/30 01:08:43;;;;;;;10.75;4.45;;;;;;;14.39;53.33;97899.44;5024990;28;20036;-61
2021/04/30 01:11:09;;;;;;;18.52;6.18;;;;;;;14.44;53.69;97912.97;5022559;28;20046;-61
2021/04/30 01:13:34;;;;;;;10.98;4.35;;;;;;;14.33;54.49;97905.72;5023898;28;20045;-61
2021/04/30 01:16:00;;;;;;;18.45;6.20;;;;;;;14.40;53.88;97904.53;5029208;28;20072;-61
2021/04/30 01:18:26;;;;;;;10.10;4.80;;;;;;;14.45;53.94;97910.34;5028293;28;20121;-62
2021/04/30 01:20:51;;;;;;;10.38;4.60;;;;;;;14.43;53.80;97911.28;5027221;28;20359;-61
2021/04/30 01:23:17;;;;;;;12.95;5.32;;;;;;;14.42;53.45;97907.06;5027962;28;20338;-61
2021/04/30 01:25:42;;;;;;;10.77;4.82;;;;;;;14.31;54.10;97911.81;5027622;28;20137;-61
2021/04/30 01:28:08;;;;;;;10.13;4.72;;;;;;;14.37;53.55;97912.44;5027334;28;20257;-61
2021/04/30 01:30:36;;;;;;;10.80;5.18;;;;;;;14.52;52.88;97911.72;5029452;28;20075;-61
2021/04/30 01:33:03;;;;;;;11.95;4.93;;;;;;;14.53;52.79;97912.56;5029730;28;20268;-61
2021/04/30 01:35:34;;;;;;;15.88;5.90;;;;;;;14.48;52.89;97911.94;5025894;28;20056;-61
2021/04/30 01:38:02;;;;;;;11.13;4.50;;;;;;;14.54;52.60;97920.22;5028353;28;20044;-61
2021/04/30 01:40:31;;;;;;;13.32;5.47;;;;;;;14.58;52.96;97915.75;5028720;28;20043;-61
2021/04/30 01:43:16;;;;;;;8.30;4.45;;;;;;;14.57;52.87;97929.56;5028774;28;20380;-61
2021/04/30 01:45:54;;;;;;;12.88;5.10;;;;;;;14.52;53.08;97936.66;5027807;28;20025;-61
2021/04/30 01:48:25;;;;;;;13.35;4.72;;;;;;;14.48;53.38;97927.41;5027720;28;20025;-61
2021/04/30 01:50:51;;;;;;;10.75;4.68;;;;;;;14.46;53.53;97930.06;5027659;28;20034;-61
2021/04/30 01:53:20;;;;;;;11.70;5.25;;;;;;;14.51;53.79;97940.19;5029005;28;20439;-61
2021/04/30 01:55:46;;;;;;;15.68;5.22;;;;;;;14.40;53.54;97943.22;5027754;28;20411;-61
2021/04/30 01:58:12;;;;;;;9.27;4.65;;;;;;;14.46;53.05;97942.97;5029217;28;20144;-61
2021/04/30 02:00:38;;;;;;;15.05;6.38;;;;;;;14.39;53.36;97945.88;5025308;28;20055;-61
2021/04/30 02:03:03;;;;;;;10.32;4.65;;;;;;;14.35;53.34;97946.88;5027165;28;20033;-61
2021/04/30 02:05:30;;;;;;;18.55;7.07;;;;;;;14.39;53.26;97951.03;5034423;28;20033;-61
2021/04/30 02:08:01;;;;;;;13.98;5.80;;;;;;;14.40;53.43;97945.81;5026086;28;20056;-61
2021/04/30 02:10:27;;;;;;;20.00;7.60;;;;;;;14.35;52.97;97946.88;5025528;28;20099;-61
2021/04/30 02:12:54;;;;;;;11.07;5.20;;;;;;;14.38;53.10;97942.47;5030366;28;20025;-61
2021/04/30 02:15:22;;;;;;;11.18;5.60;;;;;;;14.39;53.13;97941.53;5028829;28;20037;-61
2021/04/30 02:17:47;;;;;;;19.52;6.55;;;;;;;14.41;53.83;97949.22;5024481;28;20053;-61
2021/04/30 02:20:15;;;;;;;12.52;5.22;;;;;;;14.37;53.92;97953.69;5027949;28;20037;-61
2021/04/30 02:22:41;;;;;;;11.88;5.07;;;;;;;14.37;53.40;97955.44;5028673;28;20383;-61
2021/04/30 02:25:09;;;;;;;11.90;4.68;;;;;;;14.47;53.41;97959.28;5026455;28;20056;-61
2021/04/30 02:27:35;;;;;;;19.45;6.22;;;;;;;14.33;53.79;97949.53;5026152;28;20152;-62
2021/04/30 02:30:00;;;;;;;18.75;7.35;;;;;;;14.25;54.46;97959.38;5030292;28;20527;-61
2021/04/30 02:32:26;;;;;;;15.45;6.60;;;;;;;14.30;53.50;97965.13;5025473;28;20052;-61
2021/04/30 02:34:52;;;;;;;12.43;4.63;;;;;;;14.24;53.94;97973.16;5027237;28;20059;-62
2021/04/30 02:37:19;;;;;;;15.02;6.03;;;;;;;14.19;54.66;97957.88;5026254;28;20033;-61
2021/04/30 02:39:45;;;;;;;13.85;5.10;;;;;;;14.19;55.11;97975.09;5026678;28;20029;-61
2021/04/30 02:42:11;;;;;;;15.00;5.75;;;;;;;14.15;55.01;97963.25;5024555;28;20036;-62
2021/04/30 02:44:36;;;;;;;11.65;5.28;;;;;;;14.12;55.10;97963.38;5027381;28;20025;-62
2021/04/30 02:47:02;;;;;;;23.30;8.43;;;;;;;14.10;55.02;97970.34;5025630;28;20375;-62
2021/04/30 02:49:39;;;;;;;13.98;5.43;;;;;;;14.11;54.66;97970.28;5025365;28;20034;-62
2021/04/30 02:52:09;;;;;;;12.05;5.15;;;;;;;14.13;54.71;97973.63;5027495;28;20295;-62
2021/04/30 02:54:35;;;;;;;13.27;5.55;;;;;;;14.13;55.08;97975.38;5025161;28;20034;-63
2021/04/30 02:57:01;;;;;;;23.17;7.32;;;;;;;14.06;55.00;97969.63;5024909;28;20075;-62
2021/04/30 02:59:30;;;;;;;14.55;5.72;;;;;;;14.04;55.68;97978.34;5024328;28;20091;-62
2021/04/30 03:01:55;;;;;;;10.20;5.07;;;;;;;14.00;55.32;97975.03;5024196;28;20368;-62
2021/04/30 03:04:22;;;;;;;12.13;5.78;;;;;;;14.02;55.27;97977.56;5039071;28;20060;-63
2021/04/30 03:06:47;;;;;;;7.97;4.20;;;;;;;13.95;55.22;97976.16;5027306;28;20032;-62
2021/04/30 03:09:13;;;;;;;18.63;6.95;;;;;;;13.87;55.60;97983.41;5031242;28;20029;-62
2021/04/30 03:11:38;;;;;;;23.70;7.53;;;;;;;13.90;55.59;97993.56;5024655;28;20356;-62
2021/04/30 03:14:05;;;;;;;11.73;5.25;;;;;;;13.88;55.38;97982.47;5023575;28;20383;-62
2021/04/30 03:16:31;;;;;;;15.57;6.40;;;;;;;13.90;55.47;97994.41;5024773;28;20270;-62
2021/04/30 03:18:57;;;;;;;11.80;5.30;;;;;;;13.79;55.36;97990.63;5024129;28;20116;-62
2021/04/30 03:21:22;;;;;;;9.93;5.03;;;;;;;13.80;55.67;97992.25;5024581;28;20176;-62
2021/04/30 03:23:48;;;;;;;14.82;6.47;;;;;;;13.85;55.55;97998.91;5023966;28;20061;-62
2021/04/30 03:26:13;;;;;;;10.20;4.90;;;;;;;13.79;55.27;98009.47;5024568;28;20140;-62
2021/04/30 03:28:39;;;;;;;18.10;6.55;;;;;;;13.77;55.20;98003.53;5022012;28;20107;-62
2021/04/30 03:31:04;;;;;;;17.23;6.50;;;;;;;13.70;56.14;98013.28;5027102;28;20057;-62
2021/04/30 03:33:30;;;;;;;16.52;5.72;;;;;;;13.60;57.49;98017.13;5024856;28;20033;-62
2021/04/30 03:35:55;;;;;;;16.95;6.50;;;;;;;13.42;59.01;98017.03;5023171;28;20037;-62
2021/04/30 03:38:21;;;;;;;13.50;5.82;;;;;;;13.35;60.22;98026.75;5024620;28;20032;-61
2021/04/30 03:40:46;;;;;;;16.48;6.40;;;;;;;13.17;61.33;98032.59;5024106;28;20402;-61
2021/04/30 03:43:12;;;;;;;14.30;5.80;;;;;;;13.03;61.86;98033.09;5027574;28;20155;-62
2021/04/30 03:45:37;;;;;;;11.48;5.47;;;;;;;12.96;62.65;98038.53;5022273;28;20029;-62
2021/04/30 03:48:04;;;;;;;26.15;9.55;;;;;;;12.86;63.09;98038.03;5023270;28;20105;-63
2021/04/30 03:50:30;;;;;;;22.70;7.32;;;;;;;12.70;64.32;98049.81;5023487;28;20378;-63
2021/04/30 03:52:55;;;;;;;19.08;8.35;;;;;;;12.50;65.16;98055.69;5022486;28;20033;-63
2021/04/30 03:55:21;;;;;;;10.95;5.45;;;;;;;12.40;65.85;98059.47;5032388;28;20064;-63
2021/04/30 03:57:46;;;;;;;20.33;7.25;;;;;;;12.31;66.79;98072.63;5036734;28;20065;-63
2021/04/30 04:00:12;;;;;;;13.32;6.10;;;;;;;12.25;67.54;98071.13;5021728;28;20447;-61
2021/04/30 04:02:37;;;;;;;19.13;8.30;;;;;;;12.12;67.54;98087.03;5025689;28;20320;-62
2021/04/30 04:05:03;;;;;;;12.98;5.72;;;;;;;12.05;68.50;98088.13;5022299;28;20121;-61
2021/04/30 04:07:28;;;;;;;18.55;7.60;;;;;;;11.98;68.48;98097.75;5020793;28;20018;-61
2021/04/30 04:09:54;;;;;;;19.13;7.27;;;;;;;12.02;67.78;98099.31;5023804;28;20116;-61
2021/04/30 04:12:19;;;;;;;14.13;6.07;;;;;;;12.10;68.38;98109.34;5022002;28;20045;-61
2021/04/30 04:14:45;;;;;;;14.52;6.38;;;;;;;12.02;68.75;98119.03;5025360;28;20041;-61
2021/04/30 04:17:13;;;;;;;13.13;6.57;;;;;;;11.96;69.16;98122.66;5029663;28;20518;-61
2021/04/30 04:19:38;;;;;;;21.63;7.87;;;;;;;11.92;69.72;98130.53;5024356;28;20097;-62
2021/04/30 04:22:03;;;;;;;25.70;8.63;;;;;;;11.93;69.65;98134.75;5024082;28;20147;-61
2021/04/30 04:24:29;;;;;;;16.43;6.40;;;;;;;11.86;70.19;98137.53;5025382;28;20025;-61
2021/04/30 04:26:54;;;;;;;28.67;9.97;;;;;;;11.88;70.25;98134.94;5027279;28;20030;-61
2021/04/30 04:29:20;;;;;;;16.00;7.37;;;;;;;11.73;71.16;98150.81;5023988;28;20022;-61
2021/04/30 04:31:45;;;;;;;24.63;9.57;;;;;;;11.61;72.39;98149.44;5022997;28;20398;-63
2021/04/30 04:34:10;;;;;;;20.27;8.17;;;;;;;11.58;72.87;98149.53;5024715;28;20069;-63
2021/04/30 04:36:36;;;;;;;19.53;8.53;;;;;;;11.34;74.09;98156.22;5022701;28;20029;-62
2021/04/30 04:39:02;;;;;;;18.07;7.67;;;;;;;11.26;75.50;98157.34;5029235;28;20049;-61
2021/04/30 04:41:27;;;;;;;26.83;11.20;;;;;;;11.09;77.58;98155.25;5023330;28;20030;-62
2021/04/30 04:43:53;;;;;;;31.83;11.57;;;;;;;10.98;77.59;98152.19;5021998;28;20283;-62
2021/04/30 04:46:18;;;;;;;19.47;8.40;;;;;;;10.85;78.93;98163.66;5023542;28;20030;-60
2021/04/30 04:48:43;;;;;;;18.83;9.03;;;;;;;10.80;80.83;98162.94;5024854;28;20277;-62
2021/04/30 04:51:09;;;;;;;19.80;8.70;;;;;;;10.79;81.28;98166.38;5026792;28;20030;-62
2021/04/30 04:53:34;;;;;;;23.43;9.40;;;;;;;10.73;82.39;98162.28;5026567;28;20033;-62
2021/04/30 04:56:00;;;;;;;18.17;9.13;;;;;;;10.70;82.14;98166.63;5026737;28;20041;-61
2021/04/30 04:58:25;;;;;;;28.80;11.67;;;;;;;10.76;83.50;98174.16;5028341;28;20029;-62
2021/04/30 05:00:51;;;;;;;17.13;8.03;;;;;;;10.73;82.59;98175.09;5028519;28;20292;-62
2021/04/30 05:03:16;;;;;;;19.43;9.40;;;;;;;10.76;83.41;98164.75;5025320;28;20022;-62
2021/04/30 05:05:41;;;;;;;16.87;8.10;;;;;;;10.79;83.29;98162.09;5025019;28;20037;-62
2021/04/30 05:08:07;;;;;;;21.87;9.83;;;;;;;10.82;82.30;98162.00;5027523;28;20570;-62
2021/04/30 05:10:32;;;;;;;30.93;12.03;;;;;;;10.87;83.11;98164.44;5027135;28;20037;-62
2021/04/30 05:12:59;;;;;;;23.83;10.20;;;;;;;10.91;82.56;98171.16;5024051;28;20084;-62
2021/04/30 05:15:24;;;;;;;22.27;10.03;;;;;;;10.89;83.19;98171.22;5029937;28;20025;-62
2021/04/30 05:17:50;;;;;;;25.30;11.47;;;;;;;10.94;82.42;98168.53;5023890;28;20026;-62
2021/04/30 05:20:15;;;;;;;16.47;8.33;;;;;;;11.02;82.23;98181.13;5040617;28;20026;-62
2021/04/30 05:22:42;;;;;;;18.10;9.00;;;;;;;10.96;82.88;98164.19;5027142;28;20030;-62
2021/04/30 05:25:12;;;;;;;18.77;8.80;;;;;;;11.13;82.92;98174.81;5042886;28;20042;-62
2021/04/30 05:27:42;;;;;;;20.83;9.47;;;;;;;11.19;81.21;98174.66;5027420;28;20109;-62
2021/04/30 05:30:11;;;;;;;19.30;9.40;;;;;;;11.24;80.90;98182.22;5026324;28;20044;-62
2021/04/30 05:32:37;;;;;;;20.67;9.50;;;;;;;11.16;81.34;98184.97;5026402;28;20351;-62
2021/04/30 05:35:03;;;;;;;21.60;9.70;;;;;;;11.20;80.95;98176.31;5023394;28;20044;-62
2021/04/30 05:37:30;;;;;;;20.37;9.20;;;;;;;11.26;80.25;98175.31;5025692;28;20045;-62
2021/04/30 05:39:57;;;;;;;21.70;10.10;;;;;;;11.24;79.79;98180.50;5029275;28;20108;-62
2021/04/30 05:42:24;;;;;;;18.83;9.37;;;;;;;11.33;79.03;98189.66;5024548;28;20044;-61
2021/04/30 05:44:49;;;;;;;19.47;10.53;;;;;;;11.30;79.43;98189.72;5026087;28;20065;-62
2021/04/30 05:47:14;;;;;;;18.53;8.80;;;;;;;11.38;78.46;98182.63;5026401;28;20029;-62
2021/04/30 05:49:40;;;;;;;24.20;10.37;;;;;;;11.55;77.84;98193.25;5024930;28;20052;-62
2021/04/30 05:52:05;;;;;;;13.35;7.45;;;;;;;11.65;76.96;98194.66;5027799;28;20038;-62
2021/04/30 05:54:31;;;;;;;19.40;8.60;;;;;;;11.70;76.69;98195.38;5025192;28;20038;-62
2021/04/30 05:56:57;;;;;;;22.00;9.35;;;;;;;11.70;76.50;98199.66;5027673;28;20040;-63
2021/04/30 05:59:22;;;;;;;18.25;8.65;;;;;;;11.90;76.56;98207.63;5024711;28;20066;-62
2021/04/30 06:01:48;;;;;;;20.07;9.80;;;;;;;11.87;76.03;98203.44;5025589;28;20022;-62
2021/04/30 06:04:13;;;;;;;14.82;8.65;;;;;;;11.88;76.60;98205.09;5024022;28;20029;-63
2021/04/30 06:06:38;;;;;;;15.25;8.98;;;;;;;12.01;76.21;98212.44;5028241;28;20116;-63
2021/04/30 06:09:04;;;;;;;18.35;9.10;;;;;;;11.98;75.67;98215.09;5025537;28;20580;-63
2021/04/30 06:11:29;;;;;;;32.05;11.63;;;;;;;12.02;75.84;98212.38;5026898;28;20065;-64
2021/04/30 06:13:55;;;;;;;16.70;9.10;;;;;;;12.04;76.10;98215.75;5029336;28;20041;-65
2021/04/30 06:16:20;;;;;;;21.70;9.48;;;;;;;12.09;75.87;98213.88;5026072;28;20029;-66
2021/04/30 06:18:46;;;;;;;19.23;9.53;;;;;;;12.17;75.37;98213.63;5026528;28;20036;-63
2021/04/30 06:21:11;;;;;;;12.95;7.35;;;;;;;12.11;74.69;98208.66;5025130;28;20068;-62
2021/04/30 06:23:36;;;;;;;13.25;7.80;;;;;;;12.14;74.58;98211.97;5028107;28;20492;-63
2021/04/30 06:26:02;;;;;;;15.90;8.65;;;;;;;12.31;74.30;98216.56;5027056;28;20060;-63
2021/04/30 06:28:28;;;;;;;22.17;9.47;;;;;;;12.43;73.49;98217.94;5027059;28;20048;-63
2021/04/30 06:30:55;;;;;;;17.20;8.23;;;;;;;12.58;73.29;98220.81;5032155;28;20382;-63
2021/04/30 06:33:21;;;;;;;24.08;10.70;;;;;;;12.66;72.40;98212.84;5031525;28;20044;-63
2021/04/30 06:35:46;;;;;;;18.15;8.90;;;;;;;12.80;71.77;98210.63;5022122;28;20116;-63
2021/04/30 06:38:12;;;;;;;17.23;9.35;;;;;;;12.98;71.23;98219.47;5021866;28;20037;-63
2021/04/30 06:40:37;;;;;;;27.85;11.93;;;;;;;13.11;70.58;98218.16;5022154;28;20033;-63
2021/04/30 06:43:03;;;;;;;13.88;7.35;;;;;;;13.25;70.49;98218.50;5025500;28;20087;-63
2021/04/30 06:45:28;;;;;;;10.95;6.65;;;;;;;13.08;70.40;98220.78;5031266;28;20036;-63
2021/04/30 06:47:54;;;;;;;17.00;9.23;;;;;;;13.15;69.64;98220.53;5025664;28;20457;-63
2021/04/30 06:50:20;;;;;;;13.85;8.20;;;;;;;12.80;70.18;98208.06;5025658;28;20041;-63
2021/04/30 06:52:46;;;;;;;19.92;8.82;;;;;;;12.96;70.66;98223.81;5024370;28;20398;-63
2021/04/30 06:55:11;;;;;;;14.50;7.35;;;;;;;13.12;70.42;98218.09;5024687;28;20034;-63
2021/04/30 06:57:37;;;;;;;17.33;8.10;;;;;;;13.15;69.55;98219.72;5025430;28;20032;-63
2021/04/30 07:00:03;;;;;;;11.73;7.13;;;;;;;13.31;69.02;98223.44;5023635;28;20033;-63
2021/04/30 07:02:29;;;;;;;20.65;8.05;;;;;;;13.37;67.76;98215.47;5024686;28;20041;-63
2021/04/30 07:04:57;;;;;;;12.20;6.32;;;;;;;13.62;68.08;98218.00;5023134;28;20042;-63
2021/04/30 07:07:22;;;;;;;15.85;7.65;;;;;;;13.73;67.60;98229.56;5028390;28;20017;-63
2021/04/30 07:09:48;;;;;;;13.50;7.05;;;;;;;13.72;68.31;98237.34;5023050;28;20248;-64
2021/04/30 07:12:14;;;;;;;23.15;8.63;;;;;;;13.91;68.08;98240.91;5025390;28;20088;-63
2021/04/30 07:14:39;;;;;;;17.73;7.90;;;;;;;13.89;67.57;98236.69;5025510;28;20587;-63
2021/04/30 07:17:05;;;;;;;30.02;27.60;;;;;;;14.10;67.42;98235.84;5027069;28;20029;-63
2021/04/30 07:19:30;;;;;;;59.42;55.70;;;;;;;14.02;67.37;98233.59;5026253;28;20038;-64
2021/04/30 07:21:56;;;;;;;15.60;11.05;;;;;;;14.24;68.10;98231.00;5028559;28;20026;-63
2021/04/30 07:24:21;;;;;;;18.92;10.35;;;;;;;14.18;67.37;98223.50;5029829;28;20029;-63
2021/04/30 07:26:47;;;;;;;21.33;9.70;;;;;;;14.34;68.25;98227.13;5028392;28;20052;-63
2021/04/30 07:29:12;;;;;;;22.17;10.63;;;;;;;14.57;66.67;98218.50;5024724;28;20022;-63
2021/04/30 07:31:37;;;;;;;16.13;7.47;;;;;;;14.73;65.42;98216.94;5024051;28;20030;-63
2021/04/30 07:34:03;;;;;;;16.52;7.80;;;;;;;14.94;63.92;98228.94;5024492;28;20041;-63
2021/04/30 07:36:28;;;;;;;27.45;11.48;;;;;;;15.13;63.86;98213.50;5026175;28;20116;-63
2021/04/30 07:38:54;;;;;;;20.95;9.38;;;;;;;15.25;63.78;98215.53;5024287;28;20044;-64
2021/04/30 07:41:19;;;;;;;18.92;8.68;;;;;;;15.06;64.62;98220.66;5022595;28;20409;-63
2021/04/30 07:43:45;;;;;;;15.88;7.28;;;;;;;15.33;63.52;98222.94;5025677;28;20054;-63
2021/04/30 07:46:11;;;;;;;11.93;6.90;;;;;;;15.29;61.85;98222.25;5021013;28;20057;-62
2021/04/30 07:48:36;;;;;;;8.23;6.22;;;;;;;15.29;62.96;98229.97;5024241;28;20026;-63
2021/04/30 07:51:02;;;;;;;7.35;6.07;;;;;;;15.30;62.04;98242.00;5021659;28;20110;-63
2021/04/30 07:53:29;;;;;;;9.65;6.80;;;;;;;15.36;62.93;98228.78;5025244;28;20128;-63
2021/04/30 07:55:55;;;;;;;8.15;6.32;;;;;;;15.36;62.08;98240.91;5024217;28;20040;-64
2021/04/30 07:58:25;;;;;;;8.15;6.03;;;;;;;15.65;61.34;98243.03;5024622;28;20029;-63
2021/04/30 08:00:51;;;;;;;6.05;5.15;;;;;;;16.16;59.17;98234.59;5023822;28;20087;-64
2021/04/30 08:03:17;;;;;;;6.00;5.03;;;;;;;16.62;58.90;98235.81;5021144;28;20036;-64
2021/04/30 08:05:42;;;;;;;7.82;4.93;;;;;;;17.05;58.07;98234.50;5024242;28;20037;-64
2021/04/30 08:08:08;;;;;;;6.78;5.22;;;;;;;17.14;55.85;98235.78;5024160;28;20033;-64
2021/04/30 08:10:33;;;;;;;9.63;6.55;;;;;;;17.00;55.51;98239.06;5031940;28;20061;-64
2021/04/30 08:12:59;;;;;;;6.68;5.25;;;;;;;17.00;54.02;98233.88;5024385;28;20116;-64
2021/04/30 08:15:24;;;;;;;5.13;4.43;;;;;;;17.12;52.74;98233.25;5025797;28;20025;-65
2021/04/30 08:17:50;;;;;;;5.18;4.20;;;;;;;17.35;51.30;98235.47;5025059;28;20033;-64
2021/04/30 08:20:15;;;;;;;6.78;5.13;;;;;;;17.67;53.63;98222.59;5021384;28;20021;-64
2021/04/30 08:22:41;;;;;;;4.70;4.30;;;;;;;18.07;51.12;98224.69;5024339;28;20033;-64
2021/04/30 08:25:07;;;;;;;4.72;4.18;;;;;;;18.37;49.35;98222.13;5031412;28;20026;-63
2021/04/30 08:27:35;;;;;;;5.65;4.50;;;;;;;18.30;49.38;98235.53;5022198;28;20018;-63
2021/04/30 08:30:00;;;;;;;4.78;4.10;;;;;;;17.75;47.89;98225.59;5026287;28;20318;-63
2021/04/30 08:32:25;;;;;;;6.18;5.20;;;;;;;17.20;52.02;98231.09;5025825;28;20029;-63
2021/04/30 08:34:52;;;;;;;6.82;6.13;;;;;;;17.41;56.15;98228.28;5024524;28;20299;-63
2021/04/30 08:37:18;;;;;;;9.30;6.22;;;;;;;17.51;56.29;98234.69;5023059;28;20075;-63
2021/04/30 08:39:43;;;;;;;7.00;5.82;;;;;;;17.62;57.52;98235.81;5022759;28;20342;-63
2021/04/30 08:42:10;;;;;;;9.55;7.47;;;;;;;17.75;55.57;98230.78;5022165;28;20033;-63
2021/04/30 08:44:39;;;;;;;7.72;6.22;;;;;;;17.74;54.82;98234.28;5023984;28;20036;-62
2021/04/30 08:47:05;;;;;;;8.48;7.28;;;;;;;17.71;54.69;98234.47;5026287;28;20084;-63
2021/04/30 08:49:31;;;;;;;8.52;6.10;;;;;;;17.82;55.52;98231.31;5027669;28;20026;-64
2021/04/30 08:51:56;;;;;;;8.30;6.72;;;;;;;17.99;56.25;98237.22;5023738;28;20017;-64
2021/04/30 08:54:22;;;;;;;7.85;6.60;;;;;;;17.84;55.30;98229.47;5025027;28;20042;-64
2021/04/30 08:56:51;;;;;;;7.97;6.40;;;;;;;17.71;56.92;98230.13;5025263;28;20025;-64
2021/04/30 08:59:20;;;;;;;7.75;6.43;;;;;;;17.70;56.41;98225.00;5025143;28;20029;-64
2021/04/30 09:01:46;;;;;;;11.13;8.00;;;;;;;17.40;56.70;98234.41;5021435;28;20045;-64
2021/04/30 09:04:12;;;;;;;7.43;6.43;;;;;;;17.42;56.07;98228.22;5023152;28;20112;-64
2021/04/30 09:06:40;;;;;;;9.30;6.55;;;;;;;17.63;56.04;98234.06;5025912;28;20128;-63
2021/04/30 09:09:11;;;;;;;6.47;5.55;;;;;;;17.87;55.76;98231.88;5023744;28;20062;-63
2021/04/30 09:11:43;;;;;;;7.38;6.68;;;;;;;18.11;53.90;98241.75;5024038;28;20041;-63
2021/04/30 09:14:19;;;;;;;6.57;5.85;;;;;;;18.26;50.89;98243.50;5025452;28;20105;-64
2021/04/30 09:17:04;;;;;;;6.25;5.65;;;;;;;18.25;51.65;98243.56;5025192;28;20033;-64
2021/04/30 09:19:48;;;;;;;8.75;5.70;;;;;;;18.45;52.01;98238.09;5026966;28;20092;-63
2021/04/30 09:22:23;;;;;;;8.90;7.13;;;;;;;18.31;53.75;98238.03;5026019;28;20168;-63
2021/04/30 09:24:59;;;;;;;7.85;6.63;;;;;;;18.54;51.39;98239.38;5022766;28;20030;-63
2021/04/30 09:27:32;;;;;;;7.55;6.75;;;;;;;18.63;50.61;98226.66;5022655;28;20073;-63
2021/04/30 09:30:18;;;;;;;6.72;6.13;;;;;;;18.68;51.03;98218.63;5021066;28;20037;-64
2021/04/30 09:33:12;;;;;;;5.30;4.80;;;;;;;18.92;50.24;98229.34;5023358;28;20083;-64
2021/04/30 09:35:49;;;;;;;5.95;5.35;;;;;;;19.00;48.36;98221.94;5020170;28;20033;-64
2021/04/30 09:38:23;;;;;;;7.07;6.38;;;;;;;18.98;49.85;98227.22;5026772;28;20383;-64
2021/04/30 09:41:09;;;;;;;6.38;5.72;;;;;;;18.92;49.63;98234.53;5027533;28;20096;-64
2021/04/30 09:43:45;;;;;;;6.80;4.78;;;;;;;19.08;48.45;98215.34;5033881;28;20128;-64
2021/04/30 09:46:30;;;;;;;6.03;5.38;;;;;;;19.18;48.14;98219.06;5042396;28;20091;-64
2021/04/30 09:49:05;;;;;;;5.68;4.15;;;;;;;19.48;44.65;98218.16;5027417;28;20030;-64
2021/04/30 09:51:53;;;;;;;4.72;4.03;;;;;;;19.87;43.66;98210.47;5026465;28;20373;-63
2021/04/30 09:54:21;;;;;;;3.70;3.08;;;;;;;19.99;43.16;98203.66;5028392;28;20037;-64
2021/04/30 09:56:49;;;;;;;4.95;3.83;;;;;;;20.02;42.34;98209.50;5030637;28;20025;-64
2021/04/30 09:59:24;;;;;;;4.00;3.67;;;;;;;20.29;42.80;98219.94;5028670;28;20029;-64
2021/04/30 10:02:03;;;;;;;4.50;4.10;;;;;;;20.49;42.47;98216.06;5032616;28;20284;-63
2021/04/30 10:04:31;;;;;;;4.78;4.13;;;;;;;19.81;44.03;98215.25;5026225;28;20279;-63
2021/04/30 10:06:58;;;;;;;4.78;4.25;;;;;;;20.21;42.68;98213.50;5025965;28;20026;-64
2021/04/30 10:09:28;;;;;;;4.03;3.67;;;;;;;20.45;41.87;98191.94;5026649;28;20044;-64
2021/04/30 10:11:54;;;;;;;5.18;3.60;;;;;;;20.58;42.29;98205.00;5025088;28;20045;-64
2021/04/30 10:14:21;;;;;;;5.40;3.97;;;;;;;20.58;43.02;98207.59;5028130;28;20038;-64
2021/04/30 10:16:47;;;;;;;3.35;2.97;;;;;;;20.72;42.11;98199.72;5024131;28;20104;-64
2021/04/30 10:19:13;;;;;;;2.95;2.75;;;;;;;20.51;43.32;98201.97;5026677;28;20114;-64
2021/04/30 10:21:43;;;;;;;3.58;3.28;;;;;;;20.59;41.62;98198.03;5033861;28;20041;-64
2021/04/30 10:24:15;;;;;;;4.53;3.50;;;;;;;20.51;41.57;98196.75;5028693;28;20052;-64
2021/04/30 10:26:40;;;;;;;4.90;3.55;;;;;;;20.47;42.18;98208.31;5025197;28;20359;-64
2021/04/30 10:29:09;;;;;;;4.57;3.25;;;;;;;20.61;40.23;98201.38;5026398;28;20076;-69
2021/04/30 10:31:42;;;;;;;6.07;3.22;;;;;;;20.28;43.25;98202.63;5028395;28;20040;-67
2021/04/30 10:34:15;;;;;;;3.88;2.65;;;;;;;20.44;40.95;98194.66;5025267;28;20025;-68
2021/04/30 10:36:43;;;;;;;3.88;3.28;;;;;;;20.73;39.47;98195.34;5028317;28;20037;-68
2021/04/30 10:39:21;;;;;;;3.55;2.72;;;;;;;20.71;40.02;98194.63;5044777;28;20083;-67
2021/04/30 10:41:49;;;;;;;2.70;2.50;;;;;;;20.21;42.63;98192.69;5024927;28;20033;-68
2021/04/30 10:44:20;;;;;;;3.60;3.30;;;;;;;20.55;41.09;98186.97;5026971;28;20113;-64
2021/04/30 10:46:47;;;;;;;5.95;3.42;;;;;;;20.29;43.94;98180.88;5026563;28;20021;-64
2021/04/30 10:49:16;;;;;;;2.90;2.65;;;;;;;20.55;40.82;98188.75;5024844;28;20366;-63
2021/04/30 10:51:42;;;;;;;5.35;3.53;;;;;;;20.49;40.22;98177.81;5027193;28;20044;-64
2021/04/30 10:54:28;;;;;;;3.33;2.97;;;;;;;20.74;41.20;98182.22;5028964;28;20054;-63
2021/04/30 10:57:01;;;;;;;4.38;3.53;;;;;;;20.72;41.31;98181.47;5030269;28;20480;-64
2021/04/30 10:59:40;;;;;;;3.63;3.33;;;;;;;20.42;41.45;98170.50;5028384;28;20048;-64
2021/04/30 11:02:12;;;;;;;3.50;3.20;;;;;;;20.57;41.63;98169.50;5027283;28;20108;-64
2021/04/30 11:04:39;;;;;;;3.00;2.80;;;;;;;20.78;41.30;98164.59;5029422;28;20053;-64
2021/04/30 11:07:08;;;;;;;3.63;3.22;;;;;;;20.77;42.25;98161.16;5028201;28;20021;-64
2021/04/30 11:09:36;;;;;;;3.63;3.28;;;;;;;20.97;41.79;98158.03;5034251;28;20025;-65
2021/04/30 11:12:20;;;;;;;5.20;3.28;;;;;;;20.63;43.01;98158.63;5025778;28;20132;-66
2021/04/30 11:15:15;;;;;;;3.55;2.78;;;;;;;21.07;42.54;98152.19;5031231;28;20032;-64
2021/04/30 11:17:56;;;;;;;6.22;3.55;;;;;;;21.51;40.94;98152.56;5023976;28;20053;-64
2021/04/30 11:20:28;;;;;;;3.20;3.00;;;;;;;21.86;40.92;98150.00;5027137;28;20319;-64
2021/04/30 11:23:13;;;;;;;3.95;3.55;;;;;;;21.14;41.69;98148.22;5026954;28;20063;-64
2021/04/30 11:25:57;;;;;;;3.55;3.13;;;;;;;20.93;42.78;98146.13;5026616;28;20063;-64
2021/04/30 11:28:32;;;;;;;3.60;3.35;;;;;;;20.55;43.18;98140.09;5029613;28;20072;-65